createdAt,value
2023-04-20T00:00:18.003Z,10.58
2023-04-20T00:02:46.114Z,10.35
2023-04-20T00:05:16.639Z,10.23
2023-04-20T00:07:43.632Z,10.04
2023-04-20T00:10:13.272Z,9.94
2023-04-20T00:12:42.448Z,9.84
2023-04-20T00:15:09.925Z,9.76
2023-04-20T00:17:38.727Z,9.93
2023-04-20T00:20:06.618Z,9.96
2023-04-20T00:22:34.088Z,10.04
2023-04-20T00:25:00.984Z,9.86
2023-04-20T00:27:28.705Z,9.89
2023-04-20T00:29:58.697Z,9.92
2023-04-20T00:32:30.423Z,9.84
2023-04-20T00:34:57.381Z,9.74
2023-04-20T00:37:25.783Z,9.61
2023-04-20T00:39:55.918Z,9.71
2023-04-20T00:42:24.963Z,9.58
2023-04-20T00:44:52.149Z,9.70
2023-04-20T00:47:19.246Z,9.66
2023-04-20T00:49:46.590Z,9.75
2023-04-20T00:52:13.691Z,9.74
2023-04-20T00:54:41.124Z,9.62
2023-04-20T00:57:11.193Z,9.67
2023-04-20T00:59:41.349Z,9.62
2023-04-20T01:02:08.538Z,9.60
2023-04-20T01:04:40.028Z,9.55
2023-04-20T01:07:07.270Z,9.54
2023-04-20T01:09:34.208Z,9.60
2023-04-20T01:12:01.824Z,9.51
2023-04-20T01:14:28.924Z,9.55
2023-04-20T01:17:01.734Z,9.51
2023-04-20T01:19:28.822Z,9.47
2023-04-20T01:21:55.815Z,9.53
2023-04-20T01:24:27.924Z,9.58
2023-04-20T01:26:54.803Z,9.71
2023-04-20T01:29:24.074Z,9.55
2023-04-20T01:31:54.071Z,9.64
2023-04-20T01:34:23.828Z,9.69
2023-04-20T01:36:50.764Z,9.83
2023-04-20T01:39:21.037Z,9.83
2023-04-20T01:41:48.116Z,9.73
2023-04-20T01:44:23.918Z,9.76
2023-04-20T01:46:51.011Z,9.69
2023-04-20T01:49:18.255Z,9.66
2023-04-20T01:51:45.388Z,9.74
2023-04-20T01:54:12.275Z,9.67
2023-04-20T01:56:48.445Z,9.61
2023-04-20T01:59:16.172Z,9.63
2023-04-20T02:01:45.868Z,9.56
2023-04-20T02:04:12.834Z,9.56
2023-04-20T02:06:42.791Z,9.52
2023-04-20T02:09:09.947Z,9.50
2023-04-20T02:11:39.869Z,9.44
2023-04-20T02:14:07.042Z,9.36
2023-04-20T02:16:35.668Z,9.31
2023-04-20T02:19:08.036Z,9.29
2023-04-20T02:21:35.130Z,9.26
2023-04-20T02:24:04.658Z,9.00
2023-04-20T02:26:34.437Z,9.18
2023-04-20T02:29:01.421Z,9.31
2023-04-20T02:31:28.369Z,9.33
2023-04-20T02:33:58.354Z,9.46
2023-04-20T02:36:27.193Z,9.47
2023-04-20T02:38:54.559Z,9.46
2023-04-20T02:41:23.934Z,9.41
2023-04-20T02:43:52.819Z,9.36
2023-04-20T02:46:22.364Z,9.27
2023-04-20T02:48:49.482Z,9.30
2023-04-20T02:51:19.185Z,9.38
2023-04-20T02:53:46.524Z,9.36
2023-04-20T02:56:22.695Z,9.50
2023-04-20T02:59:02.912Z,9.56
2023-04-20T03:02:03.791Z,9.65
2023-04-20T03:04:31.299Z,9.68
2023-04-20T03:07:05.832Z,9.59
2023-04-20T03:09:36.947Z,9.70
2023-04-20T03:12:36.881Z,9.60
2023-04-20T03:15:25.502Z,9.42
2023-04-20T03:18:10.118Z,9.51
2023-04-20T03:20:45.403Z,9.48
2023-04-20T03:23:12.287Z,9.55
2023-04-20T03:25:39.112Z,9.45
2023-04-20T03:28:11.371Z,9.57
2023-04-20T03:30:41.250Z,9.47
2023-04-20T03:33:15.151Z,9.48
2023-04-20T03:35:43.220Z,9.53
2023-04-20T03:38:10.433Z,9.46
2023-04-20T03:40:37.407Z,9.49
2023-04-20T03:43:04.832Z,9.54
2023-04-20T03:45:31.684Z,9.65
2023-04-20T03:47:58.555Z,9.57
2023-04-20T03:50:26.318Z,9.64
2023-04-20T03:52:53.175Z,9.45
2023-04-20T03:55:20.948Z,9.56
2023-04-20T03:57:54.355Z,9.51
2023-04-20T04:00:21.600Z,9.49
2023-04-20T04:02:48.553Z,9.47
2023-04-20T04:05:23.136Z,9.58
2023-04-20T04:07:50.092Z,9.58
2023-04-20T04:10:19.161Z,9.60
2023-04-20T04:12:46.446Z,9.65
2023-04-20T04:15:14.749Z,9.64
2023-04-20T04:17:50.142Z,9.63
2023-04-20T04:20:17.358Z,9.66
2023-04-20T04:22:44.778Z,9.73
2023-04-20T04:25:33.794Z,9.67
2023-04-20T04:28:00.848Z,9.76
2023-04-20T04:30:30.152Z,9.74
2023-04-20T04:32:57.760Z,9.80
2023-04-20T04:35:24.751Z,9.72
2023-04-20T04:37:52.838Z,9.73
2023-04-20T04:40:20.149Z,9.83
2023-04-20T04:42:49.601Z,9.96
2023-04-20T04:45:18.526Z,9.94
2023-04-20T04:47:46.461Z,9.98
2023-04-20T04:50:13.545Z,9.94
2023-04-20T04:52:40.405Z,9.95
2023-04-20T04:55:09.894Z,10.06
2023-04-20T04:57:38.829Z,10.16
2023-04-20T05:00:11.919Z,10.20
2023-04-20T05:02:39.262Z,10.22
2023-04-20T05:05:09.405Z,10.26
2023-04-20T05:07:38.509Z,10.33
2023-04-20T05:10:06.694Z,10.38
2023-04-20T05:12:33.960Z,10.48
2023-04-20T05:15:00.800Z,10.52
2023-04-20T05:17:27.785Z,10.50
2023-04-20T05:19:54.703Z,10.62
2023-04-20T05:22:21.681Z,10.56
2023-04-20T05:24:48.571Z,10.73
2023-04-20T05:27:15.443Z,10.82
2023-04-20T05:29:42.262Z,11.07
2023-04-20T05:32:09.198Z,11.18
2023-04-20T05:34:36.184Z,11.26
2023-04-20T05:37:05.333Z,11.51
2023-04-20T05:39:32.339Z,11.65
2023-04-20T05:41:59.169Z,11.69
2023-04-20T05:44:26.090Z,11.69
2023-04-20T05:46:53.071Z,11.60
2023-04-20T05:49:20.076Z,11.79
2023-04-20T05:51:46.990Z,11.69
2023-04-20T05:54:13.864Z,11.74
2023-04-20T05:56:40.670Z,11.96
2023-04-20T05:59:08.726Z,12.27
2023-04-20T06:01:35.595Z,12.45
2023-04-20T06:04:02.828Z,12.65
2023-04-20T06:06:29.793Z,12.72
2023-04-20T06:08:58.213Z,12.78
2023-04-20T06:11:25.187Z,12.83
2023-04-20T06:13:52.048Z,12.79
2023-04-20T06:16:18.990Z,12.76
2023-04-20T06:18:45.868Z,12.90
2023-04-20T06:21:12.825Z,13.01
2023-04-20T06:23:41.039Z,13.03
2023-04-20T06:26:09.719Z,12.91
2023-04-20T06:28:37.219Z,13.02
2023-04-20T06:31:05.123Z,12.95
2023-04-20T06:33:31.976Z,12.92
2023-04-20T06:35:59.227Z,13.07
2023-04-20T06:38:26.160Z,13.08
2023-04-20T06:40:53.136Z,13.11
2023-04-20T06:43:20.006Z,13.19
2023-04-20T06:45:46.931Z,13.20
2023-04-20T06:48:30.156Z,13.33
2023-04-20T06:50:58.599Z,13.44
2023-04-20T06:53:28.200Z,13.49
2023-04-20T06:55:55.868Z,13.62
2023-04-20T06:58:22.854Z,13.55
2023-04-20T07:00:49.730Z,13.80
2023-04-20T07:03:18.904Z,13.91
2023-04-20T07:05:46.776Z,14.01
2023-04-20T07:08:15.814Z,14.02
2023-04-20T07:10:43.056Z,13.97
2023-04-20T07:13:09.972Z,14.04
2023-04-20T07:15:36.766Z,14.00
2023-04-20T07:18:03.805Z,13.98
2023-04-20T07:20:30.938Z,14.02
2023-04-20T07:22:57.822Z,14.11
2023-04-20T07:25:25.944Z,14.07
2023-04-20T07:27:52.957Z,14.21
2023-04-20T07:30:19.795Z,14.15
2023-04-20T07:32:46.734Z,14.18
2023-04-20T07:35:13.650Z,14.28
2023-04-20T07:37:40.940Z,14.44
2023-04-20T07:40:08.744Z,14.61
2023-04-20T07:42:37.405Z,14.73
2023-04-20T07:45:05.666Z,15.12
2023-04-20T07:47:36.023Z,14.89
2023-04-20T07:50:04.196Z,14.88
2023-04-20T07:52:31.240Z,15.00
2023-04-20T07:54:59.357Z,15.04
2023-04-20T07:57:27.141Z,15.05
2023-04-20T07:59:54.036Z,15.06
2023-04-20T08:02:21.054Z,15.20
2023-04-20T08:04:49.807Z,15.08
2023-04-20T08:07:18.063Z,15.15
2023-04-20T08:09:44.968Z,15.08
2023-04-20T08:12:11.797Z,15.13
2023-04-20T08:14:38.613Z,15.15
2023-04-20T08:17:05.616Z,15.21
2023-04-20T08:19:32.464Z,15.16
2023-04-20T08:22:00.694Z,15.28
2023-04-20T08:24:28.326Z,15.18
2023-04-20T08:26:55.147Z,15.26
2023-04-20T08:29:21.974Z,15.34
2023-04-20T08:31:50.707Z,15.55
2023-04-20T08:34:18.940Z,15.56
2023-04-20T08:36:46.509Z,15.50
2023-04-20T08:39:15.653Z,15.46
2023-04-20T08:41:42.571Z,15.63
2023-04-20T08:44:09.645Z,15.69
2023-04-20T08:46:38.507Z,15.54
2023-04-20T08:49:05.441Z,15.80
2023-04-20T08:51:32.790Z,15.82
2023-04-20T08:54:06.059Z,16.04
2023-04-20T08:56:44.593Z,15.89
2023-04-20T08:59:14.137Z,15.95
2023-04-20T09:01:42.616Z,15.96
2023-04-20T09:04:21.675Z,15.92
2023-04-20T09:06:50.810Z,16.09
2023-04-20T09:09:21.790Z,16.34
2023-04-20T09:11:59.411Z,16.36
2023-04-20T09:14:26.384Z,16.51
2023-04-20T09:17:02.182Z,16.65
2023-04-20T09:19:30.511Z,16.62
2023-04-20T09:22:05.329Z,16.51
2023-04-20T09:24:37.668Z,16.45
2023-04-20T09:27:18.343Z,16.71
2023-04-20T09:29:57.278Z,16.85
2023-04-20T09:32:25.529Z,16.91
2023-04-20T09:34:52.537Z,17.16
2023-04-20T09:37:19.432Z,17.15
2023-04-20T09:39:47.140Z,16.99
2023-04-20T09:42:16.135Z,17.23
2023-04-20T09:44:43.616Z,17.15
2023-04-20T09:47:17.915Z,17.21
2023-04-20T09:49:47.260Z,17.92
2023-04-20T09:52:21.138Z,18.57
2023-04-20T09:54:49.036Z,18.63
2023-04-20T09:57:16.054Z,18.90
2023-04-20T09:59:47.169Z,19.07
2023-04-20T10:02:14.768Z,18.81
2023-04-20T10:04:56.085Z,19.13
2023-04-20T10:07:27.822Z,19.45
2023-04-20T10:10:07.946Z,19.64
2023-04-20T10:12:46.939Z,19.81
2023-04-20T10:15:13.839Z,19.95
2023-04-20T10:17:41.680Z,20.17
2023-04-20T10:20:23.349Z,20.16
2023-04-20T10:22:52.937Z,20.36
2023-04-20T10:25:26.933Z,20.10
2023-04-20T10:27:59.097Z,19.61
2023-04-20T10:30:27.613Z,19.84
2023-04-20T10:33:11.510Z,19.54
2023-04-20T10:35:50.764Z,19.09
2023-04-20T10:38:35.436Z,18.58
2023-04-20T10:41:12.683Z,19.09
2023-04-20T10:43:43.314Z,20.22
2023-04-20T10:46:25.606Z,20.67
2023-04-20T10:49:01.646Z,20.11
2023-04-20T10:51:28.755Z,19.38
2023-04-20T10:54:07.953Z,20.00
2023-04-20T10:56:46.181Z,19.99
2023-04-20T10:59:13.907Z,19.79
2023-04-20T11:01:41.500Z,19.45
2023-04-20T11:04:10.719Z,19.00
2023-04-20T11:06:39.661Z,18.84
2023-04-20T11:09:22.882Z,18.47
2023-04-20T11:12:04.012Z,18.37
2023-04-20T11:14:33.685Z,18.40
2023-04-20T11:17:01.336Z,18.29
2023-04-20T11:19:36.175Z,18.34
2023-04-20T11:22:05.165Z,18.33
2023-04-20T11:24:34.072Z,18.69
2023-04-20T11:27:02.280Z,18.48
2023-04-20T11:29:32.714Z,18.41
2023-04-20T11:32:04.675Z,18.29
2023-04-20T11:34:32.081Z,18.32
2023-04-20T11:37:16.018Z,18.18
2023-04-20T11:39:43.156Z,18.16
2023-04-20T11:42:09.987Z,18.13
2023-04-20T11:44:37.147Z,18.08
2023-04-20T11:47:04.384Z,18.14
2023-04-20T11:49:31.484Z,18.24
2023-04-20T11:51:58.361Z,18.28
2023-04-20T11:54:27.362Z,18.33
2023-04-20T11:56:54.171Z,18.40
2023-04-20T11:59:21.510Z,18.42
2023-04-20T12:01:48.670Z,18.61
2023-04-20T12:04:16.483Z,19.07
2023-04-20T12:06:44.181Z,18.82
2023-04-20T12:09:11.306Z,18.79
2023-04-20T12:11:38.117Z,18.80
2023-04-20T12:14:05.262Z,18.80
2023-04-20T12:16:32.279Z,18.84
2023-04-20T12:18:59.361Z,18.98
2023-04-20T12:21:27.456Z,19.25
2023-04-20T12:23:54.390Z,19.88
2023-04-20T12:26:22.674Z,20.36
2023-04-20T12:28:52.273Z,20.41
2023-04-20T12:31:19.391Z,20.16
2023-04-20T12:33:46.254Z,19.65
2023-04-20T12:36:13.162Z,20.09
2023-04-20T12:38:40.046Z,20.19
2023-04-20T12:41:06.905Z,20.74
2023-04-20T12:43:34.021Z,20.36
2023-04-20T12:46:00.858Z,19.85
2023-04-20T12:48:27.659Z,19.64
2023-04-20T12:50:54.495Z,19.58
2023-04-20T12:53:21.563Z,19.77
2023-04-20T12:56:00.333Z,20.26
2023-04-20T12:58:28.097Z,20.42
2023-04-20T13:00:55.003Z,20.34
2023-04-20T13:03:21.964Z,20.49
2023-04-20T13:05:48.999Z,20.58
2023-04-20T13:08:15.912Z,20.85
2023-04-20T13:10:43.568Z,21.27
2023-04-20T13:13:11.460Z,21.50
2023-04-20T13:15:39.404Z,21.12
2023-04-20T13:18:06.948Z,20.72
2023-04-20T13:20:33.869Z,20.61
2023-04-20T13:23:01.616Z,20.73
2023-04-20T13:25:32.690Z,20.85
2023-04-20T13:28:01.317Z,21.16
2023-04-20T13:30:28.296Z,20.81
2023-04-20T13:32:55.233Z,21.20
2023-04-20T13:35:23.028Z,21.40
2023-04-20T13:37:49.857Z,21.50
2023-04-20T13:40:16.715Z,21.79
2023-04-20T13:42:43.623Z,21.47
2023-04-20T13:45:10.917Z,21.49
2023-04-20T13:47:39.450Z,21.12
2023-04-20T13:50:07.664Z,20.49
2023-04-20T13:52:34.714Z,20.47
2023-04-20T13:55:01.586Z,19.82
2023-04-20T13:57:28.476Z,19.75
2023-04-20T13:59:55.324Z,19.78
2023-04-20T14:02:22.412Z,19.68
2023-04-20T14:04:49.368Z,19.44
2023-04-20T14:07:16.328Z,19.04
2023-04-20T14:09:44.354Z,19.18
2023-04-20T14:12:11.734Z,19.35
2023-04-20T14:14:39.085Z,19.49
2023-04-20T14:17:06.085Z,19.54
2023-04-20T14:19:33.081Z,19.62
2023-04-20T14:21:59.919Z,19.69
2023-04-20T14:24:26.864Z,19.57
2023-04-20T14:26:54.270Z,19.55
2023-04-20T14:29:21.218Z,19.39
2023-04-20T14:31:48.234Z,19.18
2023-04-20T14:34:15.252Z,19.08
2023-04-20T14:36:42.255Z,19.16
2023-04-20T14:39:09.091Z,19.06
2023-04-20T14:41:36.118Z,19.19
2023-04-20T14:44:03.051Z,19.09
2023-04-20T14:46:29.869Z,19.07
2023-04-20T14:48:57.993Z,19.08
2023-04-20T14:51:33.711Z,19.26
2023-04-20T14:54:00.680Z,19.10
2023-04-20T14:56:27.670Z,19.09
2023-04-20T14:58:54.541Z,19.02
2023-04-20T15:01:22.011Z,18.92
2023-04-20T15:03:49.030Z,18.84
2023-04-20T15:06:16.991Z,18.84
2023-04-20T15:08:43.879Z,18.64
2023-04-20T15:11:10.867Z,18.68
2023-04-20T15:13:41.116Z,18.79
2023-04-20T15:16:08.839Z,18.58
2023-04-20T15:18:35.923Z,18.53
2023-04-20T15:21:02.925Z,18.59
2023-04-20T15:23:30.074Z,18.48
2023-04-20T15:25:57.040Z,18.51
2023-04-20T15:28:23.865Z,18.40
2023-04-20T15:30:50.726Z,18.24
2023-04-20T15:33:17.673Z,18.28
2023-04-20T15:35:44.518Z,18.30
2023-04-20T15:38:11.383Z,18.35
2023-04-20T15:40:38.983Z,18.28
2023-04-20T15:43:06.511Z,18.16
2023-04-20T15:45:33.486Z,18.23
2023-04-20T15:48:01.096Z,18.10
2023-04-20T15:50:28.079Z,17.94
2023-04-20T15:52:55.162Z,17.94
2023-04-20T15:55:22.299Z,17.91
2023-04-20T15:57:49.231Z,17.96
2023-04-20T16:00:16.387Z,18.05
2023-04-20T16:02:43.379Z,18.00
2023-04-20T16:05:10.297Z,17.64
2023-04-20T16:07:37.175Z,17.62
2023-04-20T16:10:06.731Z,17.52
2023-04-20T16:12:36.026Z,17.32
2023-04-20T16:15:04.005Z,17.47
2023-04-20T16:17:30.959Z,17.50
2023-04-20T16:19:57.879Z,17.42
2023-04-20T16:22:24.923Z,17.36
2023-04-20T16:24:51.929Z,17.29
2023-04-20T16:27:19.044Z,17.16
2023-04-20T16:29:46.038Z,17.02
2023-04-20T16:32:13.416Z,16.97
2023-04-20T16:34:41.098Z,16.96
2023-04-20T16:37:07.968Z,16.77
2023-04-20T16:39:35.083Z,16.77
2023-04-20T16:42:03.011Z,16.66
2023-04-20T16:44:29.860Z,16.64
2023-04-20T16:46:56.924Z,16.63
2023-04-20T16:49:23.917Z,16.62
2023-04-20T16:51:50.984Z,16.61
2023-04-20T16:54:18.028Z,16.54
2023-04-20T16:56:45.028Z,16.33
2023-04-20T16:59:11.875Z,16.20
2023-04-20T17:01:38.780Z,16.02
2023-04-20T17:04:05.878Z,15.93
2023-04-20T17:06:32.833Z,15.97
2023-04-20T17:09:05.518Z,15.98
2023-04-20T17:11:35.964Z,15.84
2023-04-20T17:14:03.473Z,15.77
2023-04-20T17:16:30.456Z,15.74
2023-04-20T17:18:57.462Z,15.63
2023-04-20T17:21:24.397Z,15.61
2023-04-20T17:23:51.337Z,15.53
2023-04-20T17:26:18.250Z,15.56
2023-04-20T17:28:46.432Z,15.58
2023-04-20T17:31:13.378Z,15.55
2023-04-20T17:33:40.406Z,15.33
2023-04-20T17:36:07.405Z,15.24
2023-04-20T17:38:36.733Z,15.32
2023-04-20T17:41:04.948Z,15.34
2023-04-20T17:43:31.784Z,15.55
2023-04-20T17:45:58.914Z,15.71
2023-04-20T17:48:26.023Z,16.09
2023-04-20T17:50:52.950Z,15.97
2023-04-20T17:53:19.811Z,16.16
2023-04-20T17:55:46.724Z,16.05
2023-04-20T17:58:13.582Z,15.91
2023-04-20T18:00:40.530Z,15.79
2023-04-20T18:03:07.526Z,15.74
2023-04-20T18:05:34.413Z,15.74
2023-04-20T18:08:01.523Z,15.65
2023-04-20T18:10:28.708Z,15.64
2023-04-20T18:12:55.632Z,15.42
2023-04-20T18:15:22.462Z,15.14
2023-04-20T18:17:49.571Z,15.24
2023-04-20T18:20:16.659Z,15.10
2023-04-20T18:22:43.537Z,15.07
2023-04-20T18:25:10.611Z,15.02
2023-04-20T18:27:38.089Z,15.03
2023-04-20T18:30:05.771Z,15.16
2023-04-20T18:32:33.137Z,15.19
2023-04-20T18:35:00.592Z,15.31
2023-04-20T18:37:27.424Z,15.32
2023-04-20T18:39:54.466Z,15.38
2023-04-20T18:42:21.336Z,15.29
2023-04-20T18:44:49.748Z,15.29
2023-04-20T18:47:18.981Z,15.25
2023-04-20T18:49:45.823Z,15.19
2023-04-20T18:52:12.907Z,15.35
2023-04-20T18:54:40.204Z,15.28
2023-04-20T18:57:07.791Z,15.03
2023-04-20T18:59:34.777Z,15.19
2023-04-20T19:02:01.664Z,15.10
2023-04-20T19:04:29.626Z,15.09
2023-04-20T19:06:56.536Z,14.96
2023-04-20T19:09:23.411Z,14.88
2023-04-20T19:11:51.085Z,14.88
2023-04-20T19:14:18.237Z,14.58
2023-04-20T19:16:45.305Z,14.61
2023-04-20T19:19:12.212Z,14.47
2023-04-20T19:21:39.164Z,14.26
2023-04-20T19:24:06.478Z,14.29
2023-04-20T19:26:33.446Z,14.32
2023-04-20T19:29:00.555Z,14.25
2023-04-20T19:31:32.222Z,13.97
2023-04-20T19:33:59.209Z,13.91
2023-04-20T19:36:26.049Z,13.98
2023-04-20T19:38:52.946Z,13.82
2023-04-20T19:41:19.955Z,13.67
2023-04-20T19:43:46.798Z,13.59
2023-04-20T19:46:16.884Z,13.50
2023-04-20T19:48:44.037Z,13.34
2023-04-20T19:51:11.720Z,13.35
2023-04-20T19:53:38.686Z,13.39
2023-04-20T19:56:06.726Z,13.50
2023-04-20T19:58:33.652Z,13.41
2023-04-20T20:01:00.476Z,13.51
2023-04-20T20:03:27.637Z,13.29
2023-04-20T20:05:54.707Z,13.36
2023-04-20T20:08:21.572Z,13.46
2023-04-20T20:10:48.431Z,13.60
2023-04-20T20:13:15.728Z,13.79
2023-04-20T20:15:42.781Z,13.60
2023-04-20T20:18:12.489Z,13.48
2023-04-20T20:20:39.360Z,13.19
2023-04-20T20:23:06.193Z,13.28
2023-04-20T20:25:35.165Z,13.37
2023-04-20T20:28:02.297Z,13.63
2023-04-20T20:30:29.240Z,13.82
2023-04-20T20:32:58.884Z,13.87
2023-04-20T20:35:31.609Z,13.97
2023-04-20T20:37:59.727Z,13.98
2023-04-20T20:40:26.639Z,14.04
2023-04-20T20:42:54.412Z,13.49
2023-04-20T20:45:22.023Z,13.37
2023-04-20T20:47:49.215Z,13.43
2023-04-20T20:50:16.904Z,13.31
2023-04-20T20:52:43.811Z,13.20
2023-04-20T20:55:10.719Z,13.15
2023-04-20T20:57:38.107Z,13.11
2023-04-20T21:00:10.457Z,13.12
2023-04-20T21:02:37.764Z,13.07
2023-04-20T21:05:05.521Z,12.92
2023-04-20T21:07:32.505Z,12.99
2023-04-20T21:09:59.327Z,12.93
2023-04-20T21:12:26.271Z,12.75
2023-04-20T21:14:53.378Z,12.68
2023-04-20T21:17:20.724Z,12.70
2023-04-20T21:19:47.592Z,12.67
2023-04-20T21:22:14.461Z,12.65
2023-04-20T21:24:41.402Z,12.77
2023-04-20T21:27:08.260Z,12.74
2023-04-20T21:29:35.009Z,12.86
2023-04-20T21:32:01.934Z,12.85
2023-04-20T21:34:28.825Z,12.85
2023-04-20T21:36:55.606Z,12.78
2023-04-20T21:39:22.489Z,12.80
2023-04-20T21:41:49.299Z,12.84
2023-04-20T21:44:18.104Z,12.92
2023-04-20T21:46:45.090Z,12.74
2023-04-20T21:49:12.020Z,12.21
2023-04-20T21:51:39.198Z,12.29
2023-04-20T21:54:06.343Z,12.37
2023-04-20T21:56:33.165Z,12.43
2023-04-20T21:58:59.997Z,12.49
2023-04-20T22:01:26.893Z,12.43
2023-04-20T22:03:53.823Z,12.43
2023-04-20T22:06:20.775Z,12.40
2023-04-20T22:08:47.611Z,12.46
2023-04-20T22:11:14.389Z,12.45
2023-04-20T22:13:41.356Z,12.42
2023-04-20T22:16:08.376Z,12.55
2023-04-20T22:18:35.351Z,12.56
2023-04-20T22:21:02.295Z,12.57
2023-04-20T22:23:29.093Z,12.23
2023-04-20T22:25:55.987Z,12.20
2023-04-20T22:28:22.842Z,12.18
2023-04-20T22:30:49.712Z,12.28
2023-04-20T22:33:16.655Z,12.35
2023-04-20T22:35:43.480Z,12.28
2023-04-20T22:38:10.284Z,12.42
2023-04-20T22:40:37.106Z,12.46
2023-04-20T22:43:03.974Z,12.51
2023-04-20T22:45:30.770Z,12.49
2023-04-20T22:47:57.610Z,12.55
2023-04-20T22:50:24.645Z,12.50
2023-04-20T22:52:51.481Z,12.49
2023-04-20T22:55:18.405Z,12.50
2023-04-20T22:57:45.322Z,12.45
2023-04-20T23:00:13.997Z,12.44
2023-04-20T23:02:41.301Z,12.26
2023-04-20T23:05:08.904Z,12.14
2023-04-20T23:07:35.915Z,12.12
2023-04-20T23:10:02.875Z,12.24
2023-04-20T23:12:29.707Z,12.20
2023-04-20T23:15:00.613Z,11.95
2023-04-20T23:17:28.883Z,12.00
2023-04-20T23:19:56.588Z,12.15
2023-04-20T23:22:23.685Z,12.18
2023-04-20T23:24:50.889Z,12.18
2023-04-20T23:27:17.854Z,12.02
2023-04-20T23:29:45.052Z,11.89
2023-04-20T23:32:11.926Z,12.01
2023-04-20T23:34:38.810Z,12.10
2023-04-20T23:37:05.927Z,12.10
2023-04-20T23:39:37.205Z,12.13
2023-04-20T23:42:05.425Z,12.15
2023-04-20T23:44:32.350Z,12.17
2023-04-20T23:46:59.182Z,11.99
2023-04-20T23:49:26.007Z,12.04
2023-04-20T23:51:52.919Z,11.69
2023-04-20T23:54:19.851Z,11.82
2023-04-20T23:56:46.700Z,11.81
2023-04-20T23:59:13.679Z,11.96
